Pelham, NH

9:05 AM EDT on August 27, 2014 (GMT -0400)
Independence Dr | Change Station
CLOSE
Current Station
Personal Weather Station
Location: Pelham, NH
Elevation: 180 ft
Nearby Weather Stations

Elev 180 ft 42.74 °N, 71.34 °W | Updated 0 second ago

Clear
Clear
74.8 °F
Feels Like 76 °F
N
1.0
Wind Variable Wind from WNW
Gusts 4.0 mph

Today
High -- | Low -- °F
--% Chance of Precip.
Yesterday
High -- | Low -- °F
Precip. -- in
6:04 AM 7:28 PM
Waxing Crescent, 3% visible
Pressure 30.71 in
Visibility 10.0 miles
Clouds Clear
Heat Index 76 °F
Dew Point 68 °F
Humidity 78%
Rainfall 0.00 in
Snow Depth Not available.
UV 2.1 out of 12
Pollen 10.20 out of 12
Ozone Good
Flu Activity Not available.
METAR KASH 271151Z 00000KT 10SM CLR 22/18 A2998 RMK AO2 51001 T02160177 10216 20188 SLP397

More Conditions Fewer Conditions

Pressure 30.71 in
Visibility 10.0 miles
Clouds Clear
Heat Index 76 °F
Dew Point 68 °F
Humidity 78%
Rainfall 0.00 in
Snow Depth Not available.
UV 2.1 out of 12
Pollen 10.20 out of 12
Ozone Good
Flu Activity Not available.
METAR KASH 271151Z 00000KT 10SM CLR 22/18 A2998 RMK AO2 51001 T02160177 10216 20188 SLP397

More Conditions Fewer Conditions

10-Day Weather Forecast

Almanac

Astronomy

Aug. 27, 2014 Rise Set
Actual Time 6:04 AM EDT 7:28 PM EDT
Civil Twilight 5:35 AM EDT 7:57 PM EDT
Nautical Twilight 4:59 AM EDT 8:32 PM EDT
Astronomical Twilight 4:22 AM EDT 9:10 PM EDT
Moon 8:01 AM EDT 8:14 PM EDT
Length of Visible Light 14h 22m
Length of Day
13h 23m
Tomorrow will be 2m 45s shorter.
Waxing Crescent, 3% of the Moon is Illuminated
Today
Waxing Crescent
Sep 2
First Quarter
Sep 8
Full
Sep 15
Last Quarter
Sep 24
New

Today's Extremes

State Highs State Lows

Community

WunderPhotos

Upload Photos

1,747,680 photos uploaded!

Nearby

Air Quality

  Air Quality AQ Index Pollutant
Yesterday Good
OZONE
Current Good
OZONE
Wednesday Good
PM2.5
Wednesday Good
OZONE

Snow Depth

Station Depth Elevation
No new snow has been reported.

Earthquake Activity

City Distance Mag. Time & Date
No recent earthquake activity has been reported nearby.
Minimum magnitude displayed is 2.5.

Coastal Water Temperatures

Place Temperature
Boston, MA 66.9 °F
Fall River, MA 73.0 °F

Nearby Weather Stations